sensor_id;sensor_type;location;lat;lon;timestamp;P1;durP1;ratioP1;P2;durP2;ratioP2
12816;SDS011;6473;51.552;6.716;2024-03-02T00:00:06;1.48;;;1.38;;
12816;SDS011;6473;51.552;6.716;2024-03-02T00:02:39;1.40;;;1.30;;
12816;SDS011;6473;51.552;6.716;2024-03-02T00:07:57;1.38;;;1.27;;
12816;SDS011;6473;51.552;6.716;2024-03-02T00:10:25;1.20;;;1.10;;
12816;SDS011;6473;51.552;6.716;2024-03-02T00:13:30;1.40;;;1.30;;
12816;SDS011;6473;51.552;6.716;2024-03-02T00:33:44;1.48;;;1.30;;
12816;SDS011;6473;51.552;6.716;2024-03-02T00:36:13;1.52;;;1.20;;
12816;SDS011;6473;51.552;6.716;2024-03-02T00:38:53;1.20;;;1.10;;
12816;SDS011;6473;51.552;6.716;2024-03-02T00:41:22;1.20;;;1.10;;
12816;SDS011;6473;51.552;6.716;2024-03-02T00:43:57;1.75;;;1.50;;
12816;SDS011;6473;51.552;6.716;2024-03-02T00:46:26;2.33;;;1.52;;
12816;SDS011;6473;51.552;6.716;2024-03-02T00:48:57;1.00;;;1.00;;
12816;SDS011;6473;51.552;6.716;2024-03-02T00:51:26;1.20;;;1.10;;
12816;SDS011;6473;51.552;6.716;2024-03-02T00:53:54;2.08;;;1.40;;
12816;SDS011;6473;51.552;6.716;2024-03-02T00:56:22;3.53;;;1.20;;
12816;SDS011;6473;51.552;6.716;2024-03-02T00:58:49;3.83;;;1.20;;
12816;SDS011;6473;51.552;6.716;2024-03-02T01:01:16;1.83;;;1.48;;
12816;SDS011;6473;51.552;6.716;2024-03-02T01:03:43;2.38;;;1.60;;
12816;SDS011;6473;51.552;6.716;2024-03-02T01:06:11;2.40;;;1.50;;
12816;SDS011;6473;51.552;6.716;2024-03-02T01:08:38;2.15;;;1.95;;
12816;SDS011;6473;51.552;6.716;2024-03-02T01:11:05;1.92;;;1.60;;
12816;SDS011;6473;51.552;6.716;2024-03-02T01:13:32;4.65;;;2.70;;
12816;SDS011;6473;51.552;6.716;2024-03-02T01:15:59;5.47;;;2.67;;
12816;SDS011;6473;51.552;6.716;2024-03-02T01:18:27;5.22;;;3.00;;
12816;SDS011;6473;51.552;6.716;2024-03-02T01:20:53;7.20;;;3.70;;
12816;SDS011;6473;51.552;6.716;2024-03-02T01:23:22;6.25;;;3.88;;
12816;SDS011;6473;51.552;6.716;2024-03-02T01:25:50;7.00;;;3.58;;
12816;SDS011;6473;51.552;6.716;2024-03-02T01:28:17;3.90;;;2.42;;
12816;SDS011;6473;51.552;6.716;2024-03-02T01:30:45;2.42;;;1.98;;
12816;SDS011;6473;51.552;6.716;2024-03-02T01:33:13;3.20;;;2.25;;
12816;SDS011;6473;51.552;6.716;2024-03-02T01:35:40;2.75;;;2.25;;
12816;SDS011;6473;51.552;6.716;2024-03-02T01:38:07;3.28;;;2.00;;
12816;SDS011;6473;51.552;6.716;2024-03-02T01:40:35;2.72;;;1.60;;
12816;SDS011;6473;51.552;6.716;2024-03-02T01:43:03;2.08;;;1.80;;
12816;SDS011;6473;51.552;6.716;2024-03-02T01:45:31;1.92;;;1.23;;
12816;SDS011;6473;51.552;6.716;2024-03-02T01:47:58;3.75;;;1.90;;
12816;SDS011;6473;51.552;6.716;2024-03-02T01:50:25;2.75;;;2.13;;
12816;SDS011;6473;51.552;6.716;2024-03-02T01:52:54;3.25;;;1.98;;
12816;SDS011;6473;51.552;6.716;2024-03-02T01:55:21;4.82;;;2.00;;
12816;SDS011;6473;51.552;6.716;2024-03-02T01:57:49;3.55;;;1.95;;
12816;SDS011;6473;51.552;6.716;2024-03-02T02:00:17;7.13;;;2.88;;
12816;SDS011;6473;51.552;6.716;2024-03-02T02:02:45;3.35;;;2.00;;
12816;SDS011;6473;51.552;6.716;2024-03-02T02:05:12;6.07;;;2.58;;
12816;SDS011;6473;51.552;6.716;2024-03-02T02:07:40;6.07;;;2.72;;
12816;SDS011;6473;51.552;6.716;2024-03-02T02:10:07;4.82;;;2.60;;
12816;SDS011;6473;51.552;6.716;2024-03-02T02:12:34;5.68;;;2.70;;
12816;SDS011;6473;51.552;6.716;2024-03-02T02:15:03;5.53;;;2.65;;
12816;SDS011;6473;51.552;6.716;2024-03-02T02:17:30;5.15;;;2.72;;
12816;SDS011;6473;51.552;6.716;2024-03-02T02:19:57;4.32;;;2.88;;
12816;SDS011;6473;51.552;6.716;2024-03-02T02:22:25;7.55;;;3.45;;
12816;SDS011;6473;51.552;6.716;2024-03-02T02:24:52;6.50;;;3.08;;
12816;SDS011;6473;51.552;6.716;2024-03-02T02:27:19;7.78;;;3.15;;
12816;SDS011;6473;51.552;6.716;2024-03-02T02:29:46;7.78;;;3.30;;
12816;SDS011;6473;51.552;6.716;2024-03-02T02:32:13;4.82;;;3.10;;
12816;SDS011;6473;51.552;6.716;2024-03-02T02:34:40;3.15;;;2.45;;
12816;SDS011;6473;51.552;6.716;2024-03-02T02:37:07;4.85;;;2.40;;
12816;SDS011;6473;51.552;6.716;2024-03-02T02:39:35;4.93;;;2.33;;
12816;SDS011;6473;51.552;6.716;2024-03-02T02:42:02;4.07;;;2.25;;
12816;SDS011;6473;51.552;6.716;2024-03-02T02:44:29;6.47;;;2.08;;
12816;SDS011;6473;51.552;6.716;2024-03-02T02:46:56;3.10;;;2.10;;
12816;SDS011;6473;51.552;6.716;2024-03-02T02:49:23;3.58;;;2.33;;
12816;SDS011;6473;51.552;6.716;2024-03-02T02:51:50;2.28;;;1.85;;
12816;SDS011;6473;51.552;6.716;2024-03-02T02:54:17;2.60;;;2.05;;
12816;SDS011;6473;51.552;6.716;2024-03-02T02:56:45;3.45;;;2.03;;
12816;SDS011;6473;51.552;6.716;2024-03-02T02:59:12;4.03;;;1.83;;
12816;SDS011;6473;51.552;6.716;2024-03-02T03:01:39;3.67;;;1.90;;
12816;SDS011;6473;51.552;6.716;2024-03-02T03:04:06;3.00;;;2.05;;
12816;SDS011;6473;51.552;6.716;2024-03-02T03:06:32;2.63;;;2.00;;
12816;SDS011;6473;51.552;6.716;2024-03-02T03:08:59;1.83;;;1.52;;
12816;SDS011;6473;51.552;6.716;2024-03-02T03:11:26;3.05;;;2.10;;
12816;SDS011;6473;51.552;6.716;2024-03-02T03:13:55;5.30;;;2.92;;
12816;SDS011;6473;51.552;6.716;2024-03-02T03:16:21;1.95;;;1.48;;
12816;SDS011;6473;51.552;6.716;2024-03-02T03:18:48;2.78;;;1.80;;
12816;SDS011;6473;51.552;6.716;2024-03-02T03:21:18;6.55;;;2.28;;
12816;SDS011;6473;51.552;6.716;2024-03-02T03:23:45;2.53;;;1.88;;
12816;SDS011;6473;51.552;6.716;2024-03-02T03:26:12;3.00;;;1.80;;
12816;SDS011;6473;51.552;6.716;2024-03-02T03:28:39;2.30;;;1.63;;
12816;SDS011;6473;51.552;6.716;2024-03-02T03:31:07;1.30;;;1.20;;
12816;SDS011;6473;51.552;6.716;2024-03-02T03:33:34;1.13;;;1.10;;
12816;SDS011;6473;51.552;6.716;2024-03-02T03:36:00;3.03;;;1.77;;
12816;SDS011;6473;51.552;6.716;2024-03-02T03:38:28;1.45;;;1.30;;
12816;SDS011;6473;51.552;6.716;2024-03-02T03:40:55;1.52;;;1.42;;
12816;SDS011;6473;51.552;6.716;2024-03-02T03:43:22;2.03;;;1.70;;
12816;SDS011;6473;51.552;6.716;2024-03-02T03:45:49;1.38;;;1.27;;
12816;SDS011;6473;51.552;6.716;2024-03-02T03:48:17;1.85;;;1.50;;
12816;SDS011;6473;51.552;6.716;2024-03-02T03:50:44;2.33;;;1.30;;
12816;SDS011;6473;51.552;6.716;2024-03-02T03:53:11;1.60;;;1.40;;
12816;SDS011;6473;51.552;6.716;2024-03-02T03:55:39;3.55;;;1.63;;
12816;SDS011;6473;51.552;6.716;2024-03-02T03:58:06;2.35;;;1.75;;
12816;SDS011;6473;51.552;6.716;2024-03-02T04:00:33;2.65;;;1.63;;
12816;SDS011;6473;51.552;6.716;2024-03-02T04:03:00;2.33;;;1.40;;
12816;SDS011;6473;51.552;6.716;2024-03-02T04:05:28;2.72;;;1.65;;
12816;SDS011;6473;51.552;6.716;2024-03-02T04:07:55;2.33;;;1.77;;
12816;SDS011;6473;51.552;6.716;2024-03-02T04:10:25;2.67;;;1.73;;
12816;SDS011;6473;51.552;6.716;2024-03-02T04:12:52;1.70;;;1.35;;
12816;SDS011;6473;51.552;6.716;2024-03-02T04:15:19;1.05;;;1.05;;
12816;SDS011;6473;51.552;6.716;2024-03-02T04:17:45;1.27;;;1.13;;
12816;SDS011;6473;51.552;6.716;2024-03-02T04:20:12;1.90;;;1.10;;
12816;SDS011;6473;51.552;6.716;2024-03-02T04:22:40;1.60;;;1.38;;
12816;SDS011;6473;51.552;6.716;2024-03-02T04:25:08;2.85;;;1.48;;
12816;SDS011;6473;51.552;6.716;2024-03-02T04:27:35;1.15;;;1.00;;
12816;SDS011;6473;51.552;6.716;2024-03-02T04:30:03;1.10;;;1.00;;
12816;SDS011;6473;51.552;6.716;2024-03-02T04:32:31;1.00;;;1.00;;
12816;SDS011;6473;51.552;6.716;2024-03-02T04:34:58;1.27;;;1.17;;
12816;SDS011;6473;51.552;6.716;2024-03-02T04:37:25;1.42;;;1.05;;
12816;SDS011;6473;51.552;6.716;2024-03-02T04:39:53;2.30;;;1.20;;
12816;SDS011;6473;51.552;6.716;2024-03-02T04:42:20;2.90;;;1.15;;
12816;SDS011;6473;51.552;6.716;2024-03-02T04:44:47;1.23;;;0.90;;
12816;SDS011;6473;51.552;6.716;2024-03-02T04:47:14;1.38;;;1.27;;
12816;SDS011;6473;51.552;6.716;2024-03-02T04:49:41;1.25;;;1.15;;
12816;SDS011;6473;51.552;6.716;2024-03-02T04:52:08;1.25;;;1.15;;
12816;SDS011;6473;51.552;6.716;2024-03-02T04:54:35;1.42;;;1.33;;
12816;SDS011;6473;51.552;6.716;2024-03-02T04:57:24;1.42;;;1.20;;
12816;SDS011;6473;51.552;6.716;2024-03-02T04:59:50;2.45;;;1.20;;
12816;SDS011;6473;51.552;6.716;2024-03-02T05:02:17;1.52;;;1.42;;
12816;SDS011;6473;51.552;6.716;2024-03-02T05:04:44;2.25;;;1.60;;
12816;SDS011;6473;51.552;6.716;2024-03-02T05:07:11;1.63;;;1.40;;
12816;SDS011;6473;51.552;6.716;2024-03-02T05:09:38;2.60;;;1.38;;
12816;SDS011;6473;51.552;6.716;2024-03-02T05:12:05;2.90;;;1.65;;
12816;SDS011;6473;51.552;6.716;2024-03-02T05:15:07;1.83;;;1.50;;
12816;SDS011;6473;51.552;6.716;2024-03-02T05:17:35;2.35;;;1.58;;
12816;SDS011;6473;51.552;6.716;2024-03-02T05:20:02;1.60;;;1.50;;
12816;SDS011;6473;51.552;6.716;2024-03-02T05:22:30;1.92;;;1.77;;
12816;SDS011;6473;51.552;6.716;2024-03-02T05:24:59;3.88;;;2.10;;
12816;SDS011;6473;51.552;6.716;2024-03-02T05:27:25;1.98;;;1.80;;
12816;SDS011;6473;51.552;6.716;2024-03-02T05:29:52;3.08;;;2.15;;
12816;SDS011;6473;51.552;6.716;2024-03-02T05:32:20;5.68;;;2.50;;
12816;SDS011;6473;51.552;6.716;2024-03-02T05:34:47;2.38;;;1.90;;
12816;SDS011;6473;51.552;6.716;2024-03-02T05:37:15;4.43;;;2.10;;
12816;SDS011;6473;51.552;6.716;2024-03-02T05:39:42;2.88;;;2.40;;
12816;SDS011;6473;51.552;6.716;2024-03-02T05:42:09;2.95;;;1.95;;
12816;SDS011;6473;51.552;6.716;2024-03-02T05:44:36;2.38;;;1.63;;
12816;SDS011;6473;51.552;6.716;2024-03-02T05:47:03;2.47;;;1.77;;
12816;SDS011;6473;51.552;6.716;2024-03-02T05:49:35;1.52;;;1.42;;
12816;SDS011;6473;51.552;6.716;2024-03-02T05:52:02;1.50;;;1.40;;
12816;SDS011;6473;51.552;6.716;2024-03-02T05:54:29;2.92;;;1.63;;
12816;SDS011;6473;51.552;6.716;2024-03-02T05:56:56;2.25;;;1.63;;
12816;SDS011;6473;51.552;6.716;2024-03-02T05:59:41;2.67;;;1.70;;
12816;SDS011;6473;51.552;6.716;2024-03-02T06:02:07;1.90;;;1.55;;
12816;SDS011;6473;51.552;6.716;2024-03-02T06:04:36;2.67;;;1.45;;
12816;SDS011;6473;51.552;6.716;2024-03-02T06:07:02;1.60;;;1.50;;
12816;SDS011;6473;51.552;6.716;2024-03-02T06:09:29;3.70;;;1.60;;
12816;SDS011;6473;51.552;6.716;2024-03-02T06:11:56;3.40;;;2.00;;
12816;SDS011;6473;51.552;6.716;2024-03-02T06:14:23;2.25;;;1.92;;
12816;SDS011;6473;51.552;6.716;2024-03-02T07:05:29;3.25;;;2.85;;
12816;SDS011;6473;51.552;6.716;2024-03-02T07:07:58;6.25;;;3.67;;
12816;SDS011;6473;51.552;6.716;2024-03-02T07:10:27;6.35;;;3.03;;
12816;SDS011;6473;51.552;6.716;2024-03-02T07:12:57;4.22;;;3.08;;
12816;SDS011;6473;51.552;6.716;2024-03-02T07:15:24;5.00;;;3.55;;
12816;SDS011;6473;51.552;6.716;2024-03-02T07:45:09;1.70;;;1.60;;
12816;SDS011;6473;51.552;6.716;2024-03-02T07:47:38;2.72;;;2.10;;
12816;SDS011;6473;51.552;6.716;2024-03-02T07:50:09;4.60;;;2.60;;
12816;SDS011;6473;51.552;6.716;2024-03-02T07:55:21;7.50;;;2.78;;
12816;SDS011;6473;51.552;6.716;2024-03-02T07:57:49;3.80;;;3.40;;
12816;SDS011;6473;51.552;6.716;2024-03-02T08:00:21;5.07;;;3.28;;
12816;SDS011;6473;51.552;6.716;2024-03-02T08:02:54;6.35;;;3.90;;
12816;SDS011;6473;51.552;6.716;2024-03-02T08:05:28;5.30;;;3.30;;
12816;SDS011;6473;51.552;6.716;2024-03-02T08:07:57;5.28;;;3.20;;
12816;SDS011;6473;51.552;6.716;2024-03-02T08:10:24;5.32;;;3.08;;
12816;SDS011;6473;51.552;6.716;2024-03-02T08:12:51;5.32;;;3.30;;
12816;SDS011;6473;51.552;6.716;2024-03-02T08:18:09;4.30;;;3.15;;
12816;SDS011;6473;51.552;6.716;2024-03-02T08:20:41;3.15;;;2.85;;
12816;SDS011;6473;51.552;6.716;2024-03-02T08:23:08;4.88;;;2.88;;
12816;SDS011;6473;51.552;6.716;2024-03-02T08:25:39;5.07;;;2.78;;
12816;SDS011;6473;51.552;6.716;2024-03-02T08:28:28;4.05;;;2.40;;
12816;SDS011;6473;51.552;6.716;2024-03-02T08:30:55;3.47;;;2.40;;
12816;SDS011;6473;51.552;6.716;2024-03-02T08:33:25;4.40;;;2.40;;
12816;SDS011;6473;51.552;6.716;2024-03-02T08:35:52;3.83;;;2.30;;
12816;SDS011;6473;51.552;6.716;2024-03-02T08:38:19;4.20;;;2.38;;
12816;SDS011;6473;51.552;6.716;2024-03-02T08:40:46;3.60;;;2.42;;
12816;SDS011;6473;51.552;6.716;2024-03-02T08:43:13;3.45;;;2.15;;
12816;SDS011;6473;51.552;6.716;2024-03-02T08:45:40;4.10;;;1.98;;
12816;SDS011;6473;51.552;6.716;2024-03-02T08:48:08;2.55;;;1.90;;
12816;SDS011;6473;51.552;6.716;2024-03-02T08:50:36;2.88;;;1.80;;
12816;SDS011;6473;51.552;6.716;2024-03-02T08:53:04;4.30;;;2.22;;
12816;SDS011;6473;51.552;6.716;2024-03-02T08:55:32;3.78;;;2.03;;
12816;SDS011;6473;51.552;6.716;2024-03-02T08:57:58;2.13;;;1.90;;
12816;SDS011;6473;51.552;6.716;2024-03-02T09:00:25;2.63;;;1.98;;
12816;SDS011;6473;51.552;6.716;2024-03-02T09:02:53;3.25;;;1.95;;
12816;SDS011;6473;51.552;6.716;2024-03-02T09:05:21;3.42;;;2.38;;
12816;SDS011;6473;51.552;6.716;2024-03-02T09:07:54;3.85;;;2.45;;
12816;SDS011;6473;51.552;6.716;2024-03-02T09:10:22;3.80;;;2.53;;
12816;SDS011;6473;51.552;6.716;2024-03-02T09:12:48;3.58;;;2.55;;
12816;SDS011;6473;51.552;6.716;2024-03-02T09:15:15;3.60;;;2.42;;
12816;SDS011;6473;51.552;6.716;2024-03-02T09:17:43;3.35;;;2.40;;
12816;SDS011;6473;51.552;6.716;2024-03-02T09:20:12;4.30;;;2.45;;
12816;SDS011;6473;51.552;6.716;2024-03-02T09:22:42;4.07;;;2.10;;
12816;SDS011;6473;51.552;6.716;2024-03-02T09:25:13;4.53;;;2.60;;
12816;SDS011;6473;51.552;6.716;2024-03-02T09:27:41;4.28;;;2.60;;
12816;SDS011;6473;51.552;6.716;2024-03-02T09:30:11;2.65;;;2.45;;
12816;SDS011;6473;51.552;6.716;2024-03-02T09:32:39;2.92;;;1.95;;
12816;SDS011;6473;51.552;6.716;2024-03-02T09:35:06;2.88;;;2.40;;
12816;SDS011;6473;51.552;6.716;2024-03-02T09:37:34;2.97;;;2.10;;
12816;SDS011;6473;51.552;6.716;2024-03-02T09:40:04;3.42;;;2.10;;
12816;SDS011;6473;51.552;6.716;2024-03-02T09:42:35;2.65;;;2.20;;
12816;SDS011;6473;51.552;6.716;2024-03-02T09:45:06;3.30;;;2.05;;
12816;SDS011;6473;51.552;6.716;2024-03-02T09:47:34;3.90;;;2.30;;
12816;SDS011;6473;51.552;6.716;2024-03-02T09:50:04;2.88;;;1.98;;
12816;SDS011;6473;51.552;6.716;2024-03-02T09:52:35;2.42;;;1.80;;
12816;SDS011;6473;51.552;6.716;2024-03-02T09:55:07;3.00;;;1.55;;
12816;SDS011;6473;51.552;6.716;2024-03-02T09:57:36;1.98;;;1.80;;
12816;SDS011;6473;51.552;6.716;2024-03-02T10:00:05;4.30;;;1.55;;
12816;SDS011;6473;51.552;6.716;2024-03-02T10:02:32;3.10;;;2.28;;
12816;SDS011;6473;51.552;6.716;2024-03-02T10:04:59;2.55;;;1.63;;
12816;SDS011;6473;51.552;6.716;2024-03-02T10:07:34;2.25;;;2.05;;
12816;SDS011;6473;51.552;6.716;2024-03-02T10:10:11;3.83;;;1.70;;
12816;SDS011;6473;51.552;6.716;2024-03-02T10:12:41;1.95;;;1.50;;
12816;SDS011;6473;51.552;6.716;2024-03-02T10:15:08;3.42;;;1.67;;
12816;SDS011;6473;51.552;6.716;2024-03-02T10:17:35;2.25;;;1.70;;
12816;SDS011;6473;51.552;6.716;2024-03-02T10:22:54;2.33;;;1.50;;
12816;SDS011;6473;51.552;6.716;2024-03-02T10:25:30;2.33;;;1.50;;
12816;SDS011;6473;51.552;6.716;2024-03-02T10:28:04;1.60;;;1.50;;
12816;SDS011;6473;51.552;6.716;2024-03-02T10:30:36;2.40;;;1.98;;
12816;SDS011;6473;51.552;6.716;2024-03-02T10:33:09;3.13;;;1.30;;
12816;SDS011;6473;51.552;6.716;2024-03-02T10:35:35;3.22;;;1.40;;
12816;SDS011;6473;51.552;6.716;2024-03-02T10:38:04;3.40;;;1.60;;
12816;SDS011;6473;51.552;6.716;2024-03-02T10:40:33;2.83;;;1.38;;
12816;SDS011;6473;51.552;6.716;2024-03-02T10:43:06;2.70;;;1.90;;
12816;SDS011;6473;51.552;6.716;2024-03-02T11:01:08;3.13;;;1.33;;
12816;SDS011;6473;51.552;6.716;2024-03-02T11:11:00;2.60;;;1.42;;
12816;SDS011;6473;51.552;6.716;2024-03-02T11:13:32;1.98;;;1.42;;
12816;SDS011;6473;51.552;6.716;2024-03-02T11:38:52;2.78;;;1.85;;
12816;SDS011;6473;51.552;6.716;2024-03-02T11:41:20;2.25;;;1.30;;
12816;SDS011;6473;51.552;6.716;2024-03-02T11:43:47;1.52;;;1.35;;
12816;SDS011;6473;51.552;6.716;2024-03-02T11:46:15;2.25;;;1.50;;
12816;SDS011;6473;51.552;6.716;2024-03-02T11:48:49;4.25;;;2.00;;
12816;SDS011;6473;51.552;6.716;2024-03-02T11:51:16;3.05;;;1.80;;
12816;SDS011;6473;51.552;6.716;2024-03-02T12:00:43;2.33;;;1.70;;
12816;SDS011;6473;51.552;6.716;2024-03-02T12:03:12;2.85;;;1.40;;
12816;SDS011;6473;51.552;6.716;2024-03-02T12:05:40;2.38;;;1.50;;
12816;SDS011;6473;51.552;6.716;2024-03-02T12:08:08;2.25;;;1.80;;
12816;SDS011;6473;51.552;6.716;2024-03-02T12:10:36;2.38;;;2.10;;
12816;SDS011;6473;51.552;6.716;2024-03-02T12:13:04;1.95;;;1.85;;
12816;SDS011;6473;51.552;6.716;2024-03-02T12:42:15;1.55;;;1.45;;
12816;SDS011;6473;51.552;6.716;2024-03-02T12:51:42;3.00;;;2.05;;
12816;SDS011;6473;51.552;6.716;2024-03-02T12:54:12;1.70;;;1.60;;
12816;SDS011;6473;51.552;6.716;2024-03-02T12:56:40;2.35;;;1.70;;
12816;SDS011;6473;51.552;6.716;2024-03-02T12:59:18;3.38;;;1.80;;
12816;SDS011;6473;51.552;6.716;2024-03-02T13:01:50;1.80;;;1.70;;
12816;SDS011;6473;51.552;6.716;2024-03-02T13:04:21;1.90;;;1.40;;
12816;SDS011;6473;51.552;6.716;2024-03-02T13:10:53;1.70;;;1.60;;
12816;SDS011;6473;51.552;6.716;2024-03-02T13:50:51;1.13;;;1.02;;
12816;SDS011;6473;51.552;6.716;2024-03-02T13:53:18;2.97;;;1.50;;
12816;SDS011;6473;51.552;6.716;2024-03-02T13:55:45;1.33;;;1.23;;
12816;SDS011;6473;51.552;6.716;2024-03-02T13:58:13;1.38;;;1.30;;
12816;SDS011;6473;51.552;6.716;2024-03-02T14:00:40;1.48;;;1.35;;
12816;SDS011;6473;51.552;6.716;2024-03-02T14:03:07;4.13;;;1.50;;
12816;SDS011;6473;51.552;6.716;2024-03-02T14:08:29;3.47;;;1.30;;
12816;SDS011;6473;51.552;6.716;2024-03-02T14:10:58;1.55;;;1.20;;
12816;SDS011;6473;51.552;6.716;2024-03-02T14:13:25;1.45;;;1.10;;
12816;SDS011;6473;51.552;6.716;2024-03-02T14:15:53;0.98;;;0.98;;
12816;SDS011;6473;51.552;6.716;2024-03-02T14:26:55;1.02;;;1.02;;
12816;SDS011;6473;51.552;6.716;2024-03-02T14:29:27;1.17;;;1.10;;
12816;SDS011;6473;51.552;6.716;2024-03-02T14:31:55;1.30;;;1.20;;
12816;SDS011;6473;51.552;6.716;2024-03-02T14:34:22;1.52;;;1.40;;
12816;SDS011;6473;51.552;6.716;2024-03-02T14:36:49;1.20;;;1.10;;
12816;SDS011;6473;51.552;6.716;2024-03-02T14:39:16;1.30;;;1.20;;
12816;SDS011;6473;51.552;6.716;2024-03-02T14:41:45;0.85;;;0.85;;
12816;SDS011;6473;51.552;6.716;2024-03-02T14:44:15;1.20;;;1.20;;
12816;SDS011;6473;51.552;6.716;2024-03-02T14:46:46;1.40;;;1.08;;
12816;SDS011;6473;51.552;6.716;2024-03-02T14:49:14;1.30;;;1.20;;
12816;SDS011;6473;51.552;6.716;2024-03-02T14:51:44;1.10;;;1.02;;
12816;SDS011;6473;51.552;6.716;2024-03-02T14:54:14;1.13;;;1.02;;
12816;SDS011;6473;51.552;6.716;2024-03-02T14:56:41;1.10;;;1.10;;
12816;SDS011;6473;51.552;6.716;2024-03-02T14:59:15;1.10;;;1.10;;
12816;SDS011;6473;51.552;6.716;2024-03-02T15:01:44;1.58;;;1.23;;
12816;SDS011;6473;51.552;6.716;2024-03-02T15:04:11;1.55;;;1.45;;
12816;SDS011;6473;51.552;6.716;2024-03-02T15:06:39;1.20;;;1.20;;
12816;SDS011;6473;51.552;6.716;2024-03-02T15:09:07;1.20;;;1.20;;
12816;SDS011;6473;51.552;6.716;2024-03-02T15:11:40;1.20;;;1.20;;
12816;SDS011;6473;51.552;6.716;2024-03-02T15:14:07;1.25;;;1.15;;
12816;SDS011;6473;51.552;6.716;2024-03-02T15:16:35;1.08;;;1.08;;
12816;SDS011;6473;51.552;6.716;2024-03-02T15:19:04;1.23;;;1.20;;
12816;SDS011;6473;51.552;6.716;2024-03-02T15:21:35;1.67;;;1.52;;
12816;SDS011;6473;51.552;6.716;2024-03-02T15:24:02;1.38;;;1.27;;
12816;SDS011;6473;51.552;6.716;2024-03-02T16:02:28;1.20;;;1.10;;
12816;SDS011;6473;51.552;6.716;2024-03-02T16:04:55;1.30;;;1.20;;
12816;SDS011;6473;51.552;6.716;2024-03-02T16:07:22;0.98;;;0.98;;
12816;SDS011;6473;51.552;6.716;2024-03-02T16:09:49;0.93;;;0.93;;
12816;SDS011;6473;51.552;6.716;2024-03-02T16:12:16;1.40;;;1.30;;
12816;SDS011;6473;51.552;6.716;2024-03-02T16:14:43;1.00;;;1.00;;
12816;SDS011;6473;51.552;6.716;2024-03-02T16:17:11;1.10;;;1.10;;
12816;SDS011;6473;51.552;6.716;2024-03-02T16:27:16;1.38;;;1.15;;
12816;SDS011;6473;51.552;6.716;2024-03-02T16:29:44;1.10;;;1.00;;
12816;SDS011;6473;51.552;6.716;2024-03-02T16:32:12;1.30;;;1.20;;
12816;SDS011;6473;51.552;6.716;2024-03-02T16:34:39;1.75;;;1.10;;
12816;SDS011;6473;51.552;6.716;2024-03-02T16:37:05;1.20;;;1.10;;
12816;SDS011;6473;51.552;6.716;2024-03-02T16:53:34;1.70;;;1.20;;
12816;SDS011;6473;51.552;6.716;2024-03-02T16:56:01;1.02;;;0.98;;
12816;SDS011;6473;51.552;6.716;2024-03-02T16:58:28;1.10;;;1.10;;
12816;SDS011;6473;51.552;6.716;2024-03-02T17:00:55;1.10;;;1.10;;
12816;SDS011;6473;51.552;6.716;2024-03-02T17:03:24;1.05;;;1.05;;
12816;SDS011;6473;51.552;6.716;2024-03-02T17:38:21;1.75;;;1.48;;
12816;SDS011;6473;51.552;6.716;2024-03-02T17:40:48;1.50;;;1.40;;
12816;SDS011;6473;51.552;6.716;2024-03-02T17:43:15;1.48;;;1.38;;
12816;SDS011;6473;51.552;6.716;2024-03-02T17:45:42;1.40;;;1.30;;
12816;SDS011;6473;51.552;6.716;2024-03-02T17:48:11;1.52;;;1.40;;
12816;SDS011;6473;51.552;6.716;2024-03-02T17:50:38;1.40;;;1.27;;
12816;SDS011;6473;51.552;6.716;2024-03-02T17:53:05;2.63;;;2.42;;
12816;SDS011;6473;51.552;6.716;2024-03-02T17:55:32;1.60;;;1.30;;
12816;SDS011;6473;51.552;6.716;2024-03-02T17:57:59;1.70;;;1.48;;
12816;SDS011;6473;51.552;6.716;2024-03-02T18:00:26;1.50;;;1.30;;
12816;SDS011;6473;51.552;6.716;2024-03-02T18:02:53;1.73;;;1.55;;
12816;SDS011;6473;51.552;6.716;2024-03-02T18:05:21;1.95;;;1.60;;
12816;SDS011;6473;51.552;6.716;2024-03-02T18:07:48;1.65;;;1.55;;
12816;SDS011;6473;51.552;6.716;2024-03-02T18:10:15;1.60;;;1.30;;
12816;SDS011;6473;51.552;6.716;2024-03-02T18:12:43;1.48;;;1.38;;
12816;SDS011;6473;51.552;6.716;2024-03-02T18:24:04;2.03;;;1.42;;
12816;SDS011;6473;51.552;6.716;2024-03-02T18:26:32;2.55;;;1.38;;
12816;SDS011;6473;51.552;6.716;2024-03-02T18:28:59;1.50;;;1.40;;
12816;SDS011;6473;51.552;6.716;2024-03-02T18:31:28;2.70;;;1.45;;
12816;SDS011;6473;51.552;6.716;2024-03-02T18:33:55;1.77;;;1.63;;
12816;SDS011;6473;51.552;6.716;2024-03-02T18:36:22;1.17;;;1.10;;
12816;SDS011;6473;51.552;6.716;2024-03-02T18:41:45;1.60;;;1.50;;
12816;SDS011;6473;51.552;6.716;2024-03-02T18:44:12;1.60;;;1.50;;
12816;SDS011;6473;51.552;6.716;2024-03-02T18:46:39;1.27;;;1.15;;
12816;SDS011;6473;51.552;6.716;2024-03-02T18:49:06;1.27;;;1.17;;
12816;SDS011;6473;51.552;6.716;2024-03-02T18:51:33;1.67;;;1.30;;
12816;SDS011;6473;51.552;6.716;2024-03-02T18:54:01;1.38;;;1.27;;
12816;SDS011;6473;51.552;6.716;2024-03-02T19:10:39;1.33;;;1.23;;
12816;SDS011;6473;51.552;6.716;2024-03-02T19:13:06;2.15;;;1.38;;
12816;SDS011;6473;51.552;6.716;2024-03-02T19:15:33;1.95;;;1.40;;
12816;SDS011;6473;51.552;6.716;2024-03-02T19:18:00;2.60;;;1.50;;
12816;SDS011;6473;51.552;6.716;2024-03-02T19:20:28;1.42;;;1.33;;
12816;SDS011;6473;51.552;6.716;2024-03-02T19:22:58;1.50;;;1.40;;
12816;SDS011;6473;51.552;6.716;2024-03-02T19:25:26;1.77;;;1.40;;
12816;SDS011;6473;51.552;6.716;2024-03-02T19:27:53;1.48;;;1.38;;
12816;SDS011;6473;51.552;6.716;2024-03-02T19:30:20;1.58;;;1.38;;
12816;SDS011;6473;51.552;6.716;2024-03-02T19:32:47;1.40;;;1.30;;
12816;SDS011;6473;51.552;6.716;2024-03-02T19:35:15;1.58;;;1.20;;
12816;SDS011;6473;51.552;6.716;2024-03-02T19:37:42;1.38;;;1.30;;
12816;SDS011;6473;51.552;6.716;2024-03-02T19:46:57;1.48;;;1.38;;
12816;SDS011;6473;51.552;6.716;2024-03-02T19:49:24;1.50;;;1.40;;
12816;SDS011;6473;51.552;6.716;2024-03-02T19:51:51;1.70;;;1.60;;
12816;SDS011;6473;51.552;6.716;2024-03-02T19:54:18;1.67;;;1.58;;
12816;SDS011;6473;51.552;6.716;2024-03-02T19:56:45;2.03;;;1.80;;
12816;SDS011;6473;51.552;6.716;2024-03-02T19:59:12;2.03;;;1.52;;
12816;SDS011;6473;51.552;6.716;2024-03-02T20:01:40;2.10;;;1.90;;
12816;SDS011;6473;51.552;6.716;2024-03-02T20:04:07;2.20;;;1.70;;
12816;SDS011;6473;51.552;6.716;2024-03-02T20:06:34;1.60;;;1.50;;
12816;SDS011;6473;51.552;6.716;2024-03-02T20:09:01;1.42;;;1.30;;
12816;SDS011;6473;51.552;6.716;2024-03-02T20:11:30;2.13;;;1.92;;
12816;SDS011;6473;51.552;6.716;2024-03-02T20:13:58;1.60;;;1.50;;
12816;SDS011;6473;51.552;6.716;2024-03-02T20:16:25;1.60;;;1.50;;
12816;SDS011;6473;51.552;6.716;2024-03-02T20:18:54;2.13;;;1.63;;
12816;SDS011;6473;51.552;6.716;2024-03-02T20:21:21;2.00;;;1.80;;
12816;SDS011;6473;51.552;6.716;2024-03-02T20:23:48;2.30;;;1.73;;
12816;SDS011;6473;51.552;6.716;2024-03-02T20:26:15;2.67;;;2.00;;
12816;SDS011;6473;51.552;6.716;2024-03-02T20:28:42;3.35;;;2.10;;
12816;SDS011;6473;51.552;6.716;2024-03-02T20:31:10;2.20;;;2.00;;
12816;SDS011;6473;51.552;6.716;2024-03-02T20:33:39;2.03;;;1.90;;
12816;SDS011;6473;51.552;6.716;2024-03-02T20:36:11;2.00;;;1.90;;
12816;SDS011;6473;51.552;6.716;2024-03-02T20:38:38;1.83;;;1.67;;
12816;SDS011;6473;51.552;6.716;2024-03-02T20:41:05;2.00;;;1.90;;
12816;SDS011;6473;51.552;6.716;2024-03-02T20:43:34;2.22;;;1.98;;
12816;SDS011;6473;51.552;6.716;2024-03-02T20:46:01;2.20;;;2.00;;
12816;SDS011;6473;51.552;6.716;2024-03-02T20:48:31;2.22;;;2.03;;
12816;SDS011;6473;51.552;6.716;2024-03-02T20:50:58;2.03;;;1.70;;
12816;SDS011;6473;51.552;6.716;2024-03-02T20:53:26;2.13;;;1.92;;
12816;SDS011;6473;51.552;6.716;2024-03-02T20:55:53;2.22;;;2.03;;
12816;SDS011;6473;51.552;6.716;2024-03-02T20:58:20;1.70;;;1.60;;
12816;SDS011;6473;51.552;6.716;2024-03-02T21:00:47;1.77;;;1.60;;
12816;SDS011;6473;51.552;6.716;2024-03-02T21:03:23;1.85;;;1.70;;
12816;SDS011;6473;51.552;6.716;2024-03-02T21:05:50;1.70;;;1.60;;
12816;SDS011;6473;51.552;6.716;2024-03-02T21:08:16;1.95;;;1.85;;
12816;SDS011;6473;51.552;6.716;2024-03-02T21:10:45;2.42;;;1.90;;
12816;SDS011;6473;51.552;6.716;2024-03-02T21:13:12;2.17;;;1.52;;